sensor_id;sensor_type;location;lat;lon;timestamp;temperature;humidity
19437;DHT22;9854;50.968;4.168;2023-03-04T00:01:44;8.00;99.90
19437;DHT22;9854;50.968;4.168;2023-03-04T00:04:09;8.10;99.90
19437;DHT22;9854;50.968;4.168;2023-03-04T00:06:35;8.20;99.90
19437;DHT22;9854;50.968;4.168;2023-03-04T00:09:01;8.30;99.90
19437;DHT22;9854;50.968;4.168;2023-03-04T00:11:28;8.30;99.90
19437;DHT22;9854;50.968;4.168;2023-03-04T00:13:54;8.40;99.90
19437;DHT22;9854;50.968;4.168;2023-03-04T00:16:20;8.40;99.90
19437;DHT22;9854;50.968;4.168;2023-03-04T00:18:45;8.40;99.90
19437;DHT22;9854;50.968;4.168;2023-03-04T00:21:11;8.40;99.90
19437;DHT22;9854;50.968;4.168;2023-03-04T00:23:37;8.30;99.90
19437;DHT22;9854;50.968;4.168;2023-03-04T00:26:02;8.30;99.90
19437;DHT22;9854;50.968;4.168;2023-03-04T00:28:28;8.30;99.90
19437;DHT22;9854;50.968;4.168;2023-03-04T00:30:54;8.40;99.90
19437;DHT22;9854;50.968;4.168;2023-03-04T00:33:19;8.30;99.90
19437;DHT22;9854;50.968;4.168;2023-03-04T00:35:45;8.30;99.90
19437;DHT22;9854;50.968;4.168;2023-03-04T00:38:10;8.30;99.90
19437;DHT22;9854;50.968;4.168;2023-03-04T00:40:36;8.20;99.90
19437;DHT22;9854;50.968;4.168;2023-03-04T00:43:02;8.30;99.90
19437;DHT22;9854;50.968;4.168;2023-03-04T00:45:27;8.20;99.90
19437;DHT22;9854;50.968;4.168;2023-03-04T00:47:53;8.30;99.90
19437;DHT22;9854;50.968;4.168;2023-03-04T00:50:19;8.30;99.90
19437;DHT22;9854;50.968;4.168;2023-03-04T00:52:45;8.30;99.90
19437;DHT22;9854;50.968;4.168;2023-03-04T00:55:10;8.30;99.90
19437;DHT22;9854;50.968;4.168;2023-03-04T00:57:36;8.40;99.90
19437;DHT22;9854;50.968;4.168;2023-03-04T01:00:02;8.40;99.90
19437;DHT22;9854;50.968;4.168;2023-03-04T01:02:29;8.30;99.90
19437;DHT22;9854;50.968;4.168;2023-03-04T01:04:55;8.40;99.90
19437;DHT22;9854;50.968;4.168;2023-03-04T01:07:20;8.40;99.90
19437;DHT22;9854;50.968;4.168;2023-03-04T01:09:46;8.40;99.90
19437;DHT22;9854;50.968;4.168;2023-03-04T01:12:11;8.40;99.90
19437;DHT22;9854;50.968;4.168;2023-03-04T01:14:37;8.40;99.90
19437;DHT22;9854;50.968;4.168;2023-03-04T01:17:03;8.40;99.90
19437;DHT22;9854;50.968;4.168;2023-03-04T01:19:28;8.50;99.90
19437;DHT22;9854;50.968;4.168;2023-03-04T01:21:54;8.40;99.90
19437;DHT22;9854;50.968;4.168;2023-03-04T01:24:20;8.40;99.90
19437;DHT22;9854;50.968;4.168;2023-03-04T01:26:45;8.30;99.90
19437;DHT22;9854;50.968;4.168;2023-03-04T01:29:11;8.40;99.90
19437;DHT22;9854;50.968;4.168;2023-03-04T01:31:37;8.40;99.90
19437;DHT22;9854;50.968;4.168;2023-03-04T01:34:02;8.40;99.90
19437;DHT22;9854;50.968;4.168;2023-03-04T01:36:28;8.40;99.90
19437;DHT22;9854;50.968;4.168;2023-03-04T01:38:54;8.40;99.90
19437;DHT22;9854;50.968;4.168;2023-03-04T01:41:23;8.40;99.90
19437;DHT22;9854;50.968;4.168;2023-03-04T01:43:49;8.30;99.90
19437;DHT22;9854;50.968;4.168;2023-03-04T01:46:15;8.30;99.90
19437;DHT22;9854;50.968;4.168;2023-03-04T01:48:42;8.30;99.90
19437;DHT22;9854;50.968;4.168;2023-03-04T01:51:15;8.40;99.90
19437;DHT22;9854;50.968;4.168;2023-03-04T01:53:41;8.40;99.90
19437;DHT22;9854;50.968;4.168;2023-03-04T01:56:23;8.30;99.90
19437;DHT22;9854;50.968;4.168;2023-03-04T01:59:25;8.40;99.90
19437;DHT22;9854;50.968;4.168;2023-03-04T02:01:56;8.30;99.90
19437;DHT22;9854;50.968;4.168;2023-03-04T02:04:28;8.40;99.90
19437;DHT22;9854;50.968;4.168;2023-03-04T02:06:56;8.40;99.90
19437;DHT22;9854;50.968;4.168;2023-03-04T02:09:22;8.40;99.90
19437;DHT22;9854;50.968;4.168;2023-03-04T02:11:49;8.30;99.90
19437;DHT22;9854;50.968;4.168;2023-03-04T02:14:16;8.30;99.90
19437;DHT22;9854;50.968;4.168;2023-03-04T02:16:42;8.30;99.90
19437;DHT22;9854;50.968;4.168;2023-03-04T02:22:17;8.40;99.90
19437;DHT22;9854;50.968;4.168;2023-03-04T02:24:46;8.30;99.90
19437;DHT22;9854;50.968;4.168;2023-03-04T02:27:14;8.40;99.90
19437;DHT22;9854;50.968;4.168;2023-03-04T02:29:40;8.40;99.90
19437;DHT22;9854;50.968;4.168;2023-03-04T02:32:05;8.30;99.90
19437;DHT22;9854;50.968;4.168;2023-03-04T02:34:34;8.30;99.90
19437;DHT22;9854;50.968;4.168;2023-03-04T02:37:01;8.00;99.90
19437;DHT22;9854;50.968;4.168;2023-03-04T02:39:34;7.90;99.90
19437;DHT22;9854;50.968;4.168;2023-03-04T02:42:01;8.00;99.90
19437;DHT22;9854;50.968;4.168;2023-03-04T02:44:30;8.00;99.90
19437;DHT22;9854;50.968;4.168;2023-03-04T02:46:57;8.10;99.90
19437;DHT22;9854;50.968;4.168;2023-03-04T02:49:25;8.10;99.90
19437;DHT22;9854;50.968;4.168;2023-03-04T02:51:52;8.10;99.90
19437;DHT22;9854;50.968;4.168;2023-03-04T02:54:22;8.10;99.90
19437;DHT22;9854;50.968;4.168;2023-03-04T02:56:51;8.10;99.90
19437;DHT22;9854;50.968;4.168;2023-03-04T02:59:17;8.20;99.90
19437;DHT22;9854;50.968;4.168;2023-03-04T03:01:43;8.00;99.90
19437;DHT22;9854;50.968;4.168;2023-03-04T03:04:09;8.00;99.90
19437;DHT22;9854;50.968;4.168;2023-03-04T03:06:35;7.90;99.90
19437;DHT22;9854;50.968;4.168;2023-03-04T03:09:01;7.80;99.90
19437;DHT22;9854;50.968;4.168;2023-03-04T03:11:27;7.60;99.90
19437;DHT22;9854;50.968;4.168;2023-03-04T03:13:52;7.40;99.90
19437;DHT22;9854;50.968;4.168;2023-03-04T03:16:18;7.40;99.90
19437;DHT22;9854;50.968;4.168;2023-03-04T03:18:44;7.30;99.90
19437;DHT22;9854;50.968;4.168;2023-03-04T03:21:09;7.30;99.90
19437;DHT22;9854;50.968;4.168;2023-03-04T03:23:35;7.20;99.90
19437;DHT22;9854;50.968;4.168;2023-03-04T03:26:01;7.10;99.90
19437;DHT22;9854;50.968;4.168;2023-03-04T03:28:27;7.10;99.90
19437;DHT22;9854;50.968;4.168;2023-03-04T03:30:53;7.20;99.90
19437;DHT22;9854;50.968;4.168;2023-03-04T03:33:19;7.20;99.90
19437;DHT22;9854;50.968;4.168;2023-03-04T03:35:44;7.20;99.90
19437;DHT22;9854;50.968;4.168;2023-03-04T03:38:10;7.30;99.90
19437;DHT22;9854;50.968;4.168;2023-03-04T03:40:36;7.20;99.90
19437;DHT22;9854;50.968;4.168;2023-03-04T03:43:01;7.30;99.90
19437;DHT22;9854;50.968;4.168;2023-03-04T03:45:27;7.30;99.90
19437;DHT22;9854;50.968;4.168;2023-03-04T03:47:53;7.40;99.90
19437;DHT22;9854;50.968;4.168;2023-03-04T03:50:18;7.40;99.90
19437;DHT22;9854;50.968;4.168;2023-03-04T03:52:44;7.40;99.90
19437;DHT22;9854;50.968;4.168;2023-03-04T03:55:10;7.50;99.90
19437;DHT22;9854;50.968;4.168;2023-03-04T03:57:35;7.60;99.90
19437;DHT22;9854;50.968;4.168;2023-03-04T04:00:02;7.60;99.90
19437;DHT22;9854;50.968;4.168;2023-03-04T04:02:28;7.60;99.90
19437;DHT22;9854;50.968;4.168;2023-03-04T04:04:54;7.60;99.90
19437;DHT22;9854;50.968;4.168;2023-03-04T04:07:19;7.70;99.90
19437;DHT22;9854;50.968;4.168;2023-03-04T04:09:45;7.70;99.90
19437;DHT22;9854;50.968;4.168;2023-03-04T04:12:13;7.70;99.90
19437;DHT22;9854;50.968;4.168;2023-03-04T04:14:39;7.60;99.90
19437;DHT22;9854;50.968;4.168;2023-03-04T04:17:05;7.70;99.90
19437;DHT22;9854;50.968;4.168;2023-03-04T04:19:30;7.80;99.90
19437;DHT22;9854;50.968;4.168;2023-03-04T04:21:56;7.70;99.90
19437;DHT22;9854;50.968;4.168;2023-03-04T04:24:22;7.70;99.90
19437;DHT22;9854;50.968;4.168;2023-03-04T04:26:47;7.60;99.90
19437;DHT22;9854;50.968;4.168;2023-03-04T04:29:14;7.60;99.90
19437;DHT22;9854;50.968;4.168;2023-03-04T04:31:39;7.50;99.90
19437;DHT22;9854;50.968;4.168;2023-03-04T04:34:05;7.50;99.90
19437;DHT22;9854;50.968;4.168;2023-03-04T04:36:31;7.40;99.90
19437;DHT22;9854;50.968;4.168;2023-03-04T04:38:57;7.40;99.90
19437;DHT22;9854;50.968;4.168;2023-03-04T04:41:25;7.50;99.90
19437;DHT22;9854;50.968;4.168;2023-03-04T04:43:52;7.50;99.90
19437;DHT22;9854;50.968;4.168;2023-03-04T04:46:17;7.60;99.90
19437;DHT22;9854;50.968;4.168;2023-03-04T04:48:44;7.50;99.90
19437;DHT22;9854;50.968;4.168;2023-03-04T04:51:09;7.40;99.90
19437;DHT22;9854;50.968;4.168;2023-03-04T04:53:35;7.50;99.90
19437;DHT22;9854;50.968;4.168;2023-03-04T04:56:11;7.50;99.90
19437;DHT22;9854;50.968;4.168;2023-03-04T04:58:37;7.40;99.90
19437;DHT22;9854;50.968;4.168;2023-03-04T05:01:03;7.30;99.90
19437;DHT22;9854;50.968;4.168;2023-03-04T05:03:30;7.30;99.90
19437;DHT22;9854;50.968;4.168;2023-03-04T05:05:55;7.30;99.90
19437;DHT22;9854;50.968;4.168;2023-03-04T05:08:21;7.30;99.90
19437;DHT22;9854;50.968;4.168;2023-03-04T05:10:47;7.30;99.90
19437;DHT22;9854;50.968;4.168;2023-03-04T05:13:12;7.30;99.90
19437;DHT22;9854;50.968;4.168;2023-03-04T05:15:38;7.40;99.90
19437;DHT22;9854;50.968;4.168;2023-03-04T05:18:04;7.40;99.90
19437;DHT22;9854;50.968;4.168;2023-03-04T05:20:29;7.40;99.90
19437;DHT22;9854;50.968;4.168;2023-03-04T05:22:55;7.40;99.90
19437;DHT22;9854;50.968;4.168;2023-03-04T05:25:20;7.50;99.90
19437;DHT22;9854;50.968;4.168;2023-03-04T05:27:46;7.40;99.90
19437;DHT22;9854;50.968;4.168;2023-03-04T05:30:12;7.30;99.90
19437;DHT22;9854;50.968;4.168;2023-03-04T05:32:38;7.30;99.90
19437;DHT22;9854;50.968;4.168;2023-03-04T05:35:04;7.20;99.90
19437;DHT22;9854;50.968;4.168;2023-03-04T05:37:29;7.20;99.90
19437;DHT22;9854;50.968;4.168;2023-03-04T05:39:55;7.20;99.90
19437;DHT22;9854;50.968;4.168;2023-03-04T05:42:21;7.30;99.90
19437;DHT22;9854;50.968;4.168;2023-03-04T05:44:46;7.20;99.90
19437;DHT22;9854;50.968;4.168;2023-03-04T05:47:12;7.20;99.90
19437;DHT22;9854;50.968;4.168;2023-03-04T05:49:37;7.20;99.90
19437;DHT22;9854;50.968;4.168;2023-03-04T05:52:03;7.30;99.90
19437;DHT22;9854;50.968;4.168;2023-03-04T05:54:29;7.20;99.90
19437;DHT22;9854;50.968;4.168;2023-03-04T05:56:54;7.10;99.90
19437;DHT22;9854;50.968;4.168;2023-03-04T05:59:20;7.10;99.90
19437;DHT22;9854;50.968;4.168;2023-03-04T06:01:46;7.10;99.90
19437;DHT22;9854;50.968;4.168;2023-03-04T06:04:12;7.00;99.90
19437;DHT22;9854;50.968;4.168;2023-03-04T06:06:37;7.10;99.90
19437;DHT22;9854;50.968;4.168;2023-03-04T06:09:03;7.00;99.90
19437;DHT22;9854;50.968;4.168;2023-03-04T06:11:29;7.00;99.90
19437;DHT22;9854;50.968;4.168;2023-03-04T06:13:54;6.90;99.90
19437;DHT22;9854;50.968;4.168;2023-03-04T06:16:20;6.90;99.90
19437;DHT22;9854;50.968;4.168;2023-03-04T06:18:46;7.00;99.90
19437;DHT22;9854;50.968;4.168;2023-03-04T06:21:11;7.10;99.90
19437;DHT22;9854;50.968;4.168;2023-03-04T06:23:37;7.10;99.90
19437;DHT22;9854;50.968;4.168;2023-03-04T06:26:04;7.00;99.90
19437;DHT22;9854;50.968;4.168;2023-03-04T06:28:33;7.00;99.90
19437;DHT22;9854;50.968;4.168;2023-03-04T06:30:59;6.90;99.90
19437;DHT22;9854;50.968;4.168;2023-03-04T06:33:24;7.00;99.90
19437;DHT22;9854;50.968;4.168;2023-03-04T06:35:55;7.00;99.90
19437;DHT22;9854;50.968;4.168;2023-03-04T06:38:21;7.10;99.90
19437;DHT22;9854;50.968;4.168;2023-03-04T06:40:47;7.10;99.90
19437;DHT22;9854;50.968;4.168;2023-03-04T06:43:12;7.00;99.90
19437;DHT22;9854;50.968;4.168;2023-03-04T06:45:38;6.90;99.90
19437;DHT22;9854;50.968;4.168;2023-03-04T06:48:04;6.90;99.90
19437;DHT22;9854;50.968;4.168;2023-03-04T06:50:30;6.90;99.90
19437;DHT22;9854;50.968;4.168;2023-03-04T06:52:56;6.90;99.90
19437;DHT22;9854;50.968;4.168;2023-03-04T06:55:22;7.00;99.90
19437;DHT22;9854;50.968;4.168;2023-03-04T06:57:48;6.90;99.90
19437;DHT22;9854;50.968;4.168;2023-03-04T07:00:14;7.00;99.90
19437;DHT22;9854;50.968;4.168;2023-03-04T07:02:40;7.10;99.90
19437;DHT22;9854;50.968;4.168;2023-03-04T07:05:06;7.00;99.90
19437;DHT22;9854;50.968;4.168;2023-03-04T07:07:32;6.90;99.90
19437;DHT22;9854;50.968;4.168;2023-03-04T07:09:57;6.90;99.90
19437;DHT22;9854;50.968;4.168;2023-03-04T07:12:23;7.00;99.90
19437;DHT22;9854;50.968;4.168;2023-03-04T07:14:49;7.20;99.90
19437;DHT22;9854;50.968;4.168;2023-03-04T07:17:14;7.10;99.90
19437;DHT22;9854;50.968;4.168;2023-03-04T07:19:40;7.20;99.90
19437;DHT22;9854;50.968;4.168;2023-03-04T07:22:06;7.20;99.90
19437;DHT22;9854;50.968;4.168;2023-03-04T07:24:32;7.50;99.90
19437;DHT22;9854;50.968;4.168;2023-03-04T07:26:57;7.40;99.90
19437;DHT22;9854;50.968;4.168;2023-03-04T07:29:23;7.30;99.90
19437;DHT22;9854;50.968;4.168;2023-03-04T07:31:49;7.20;99.90
19437;DHT22;9854;50.968;4.168;2023-03-04T07:34:14;7.20;99.90
19437;DHT22;9854;50.968;4.168;2023-03-04T07:36:40;7.20;99.90
19437;DHT22;9854;50.968;4.168;2023-03-04T07:39:07;7.10;99.90
19437;DHT22;9854;50.968;4.168;2023-03-04T07:41:33;7.20;99.90
19437;DHT22;9854;50.968;4.168;2023-03-04T07:44:03;7.30;99.90
19437;DHT22;9854;50.968;4.168;2023-03-04T07:46:29;7.30;99.90
19437;DHT22;9854;50.968;4.168;2023-03-04T07:48:55;7.40;99.90
19437;DHT22;9854;50.968;4.168;2023-03-04T07:51:23;7.40;99.90
19437;DHT22;9854;50.968;4.168;2023-03-04T07:53:51;7.50;99.90
19437;DHT22;9854;50.968;4.168;2023-03-04T07:56:20;7.60;99.90
19437;DHT22;9854;50.968;4.168;2023-03-04T07:58:47;7.70;99.90
19437;DHT22;9854;50.968;4.168;2023-03-04T08:01:19;7.70;99.90
19437;DHT22;9854;50.968;4.168;2023-03-04T08:03:45;7.70;99.90
19437;DHT22;9854;50.968;4.168;2023-03-04T08:06:13;7.70;99.90
19437;DHT22;9854;50.968;4.168;2023-03-04T08:08:40;7.70;99.90
19437;DHT22;9854;50.968;4.168;2023-03-04T08:11:10;7.70;99.90
19437;DHT22;9854;50.968;4.168;2023-03-04T08:13:39;7.80;99.90
19437;DHT22;9854;50.968;4.168;2023-03-04T08:16:06;7.90;99.90
19437;DHT22;9854;50.968;4.168;2023-03-04T08:18:32;7.90;99.90
19437;DHT22;9854;50.968;4.168;2023-03-04T08:20:58;7.80;99.90
19437;DHT22;9854;50.968;4.168;2023-03-04T08:23:23;7.80;99.90
19437;DHT22;9854;50.968;4.168;2023-03-04T08:25:49;7.80;99.90
19437;DHT22;9854;50.968;4.168;2023-03-04T08:28:15;7.80;99.90
19437;DHT22;9854;50.968;4.168;2023-03-04T08:30:41;7.70;99.90
19437;DHT22;9854;50.968;4.168;2023-03-04T08:33:07;7.70;99.90
19437;DHT22;9854;50.968;4.168;2023-03-04T08:35:36;7.70;99.90
19437;DHT22;9854;50.968;4.168;2023-03-04T08:38:02;7.40;99.90
19437;DHT22;9854;50.968;4.168;2023-03-04T08:40:27;7.60;99.90
19437;DHT22;9854;50.968;4.168;2023-03-04T08:42:55;7.70;99.90
19437;DHT22;9854;50.968;4.168;2023-03-04T08:45:20;7.80;99.90
19437;DHT22;9854;50.968;4.168;2023-03-04T08:47:46;7.90;99.90
19437;DHT22;9854;50.968;4.168;2023-03-04T08:50:12;7.90;99.90
19437;DHT22;9854;50.968;4.168;2023-03-04T08:52:37;8.00;99.90
19437;DHT22;9854;50.968;4.168;2023-03-04T08:55:03;8.00;99.90
19437;DHT22;9854;50.968;4.168;2023-03-04T08:57:29;8.00;99.90
19437;DHT22;9854;50.968;4.168;2023-03-04T08:59:55;8.00;99.90
19437;DHT22;9854;50.968;4.168;2023-03-04T09:02:20;8.00;99.90
19437;DHT22;9854;50.968;4.168;2023-03-04T09:04:46;8.00;99.90
19437;DHT22;9854;50.968;4.168;2023-03-04T09:07:12;7.80;99.90
19437;DHT22;9854;50.968;4.168;2023-03-04T09:09:39;7.60;99.90
19437;DHT22;9854;50.968;4.168;2023-03-04T09:12:04;7.70;99.90
19437;DHT22;9854;50.968;4.168;2023-03-04T09:14:30;7.60;99.90
19437;DHT22;9854;50.968;4.168;2023-03-04T09:16:57;7.60;99.90
19437;DHT22;9854;50.968;4.168;2023-03-04T09:19:23;7.70;99.90
19437;DHT22;9854;50.968;4.168;2023-03-04T09:21:49;7.90;99.90
19437;DHT22;9854;50.968;4.168;2023-03-04T09:24:14;7.90;99.90
19437;DHT22;9854;50.968;4.168;2023-03-04T09:26:40;8.00;99.90
19437;DHT22;9854;50.968;4.168;2023-03-04T09:29:06;8.00;99.90
19437;DHT22;9854;50.968;4.168;2023-03-04T09:31:32;8.20;99.90
19437;DHT22;9854;50.968;4.168;2023-03-04T09:33:58;8.30;99.90
19437;DHT22;9854;50.968;4.168;2023-03-04T09:36:24;8.50;99.90
19437;DHT22;9854;50.968;4.168;2023-03-04T09:38:50;8.20;99.90
19437;DHT22;9854;50.968;4.168;2023-03-04T09:41:23;8.10;99.90
19437;DHT22;9854;50.968;4.168;2023-03-04T09:43:50;8.00;99.90
19437;DHT22;9854;50.968;4.168;2023-03-04T09:46:32;8.00;99.90
19437;DHT22;9854;50.968;4.168;2023-03-04T09:48:58;8.30;99.90
19437;DHT22;9854;50.968;4.168;2023-03-04T09:56:41;8.10;99.90
19437;DHT22;9854;50.968;4.168;2023-03-04T09:59:29;8.30;99.90
19437;DHT22;9854;50.968;4.168;2023-03-04T10:02:01;8.30;99.90
19437;DHT22;9854;50.968;4.168;2023-03-04T10:04:40;8.10;99.90
19437;DHT22;9854;50.968;4.168;2023-03-04T10:07:16;8.30;99.90
19437;DHT22;9854;50.968;4.168;2023-03-04T10:09:48;8.30;99.90
19437;DHT22;9854;50.968;4.168;2023-03-04T10:12:19;8.30;99.90
19437;DHT22;9854;50.968;4.168;2023-03-04T10:14:53;8.40;99.90
19437;DHT22;9854;50.968;4.168;2023-03-04T10:17:23;8.40;99.90
19437;DHT22;9854;50.968;4.168;2023-03-04T10:20:17;8.50;99.90
19437;DHT22;9854;50.968;4.168;2023-03-04T10:22:49;8.50;99.90
19437;DHT22;9854;50.968;4.168;2023-03-04T10:27:51;8.60;99.90
19437;DHT22;9854;50.968;4.168;2023-03-04T10:30:43;8.50;99.90
19437;DHT22;9854;50.968;4.168;2023-03-04T10:33:15;8.70;99.90
19437;DHT22;9854;50.968;4.168;2023-03-04T10:35:45;8.80;99.90
19437;DHT22;9854;50.968;4.168;2023-03-04T10:38:12;8.80;99.90
19437;DHT22;9854;50.968;4.168;2023-03-04T10:40:40;8.80;99.90
19437;DHT22;9854;50.968;4.168;2023-03-04T10:43:16;9.00;99.90
19437;DHT22;9854;50.968;4.168;2023-03-04T10:45:42;8.80;99.90
19437;DHT22;9854;50.968;4.168;2023-03-04T10:48:21;8.70;99.90
19437;DHT22;9854;50.968;4.168;2023-03-04T10:50:47;9.00;99.90
19437;DHT22;9854;50.968;4.168;2023-03-04T10:53:36;9.10;99.90
19437;DHT22;9854;50.968;4.168;2023-03-04T10:56:03;9.30;99.90
19437;DHT22;9854;50.968;4.168;2023-03-04T10:58:33;9.20;99.90
19437;DHT22;9854;50.968;4.168;2023-03-04T11:01:04;9.20;99.90
19437;DHT22;9854;50.968;4.168;2023-03-04T11:03:35;9.30;99.90
19437;DHT22;9854;50.968;4.168;2023-03-04T11:06:21;9.10;99.90
19437;DHT22;9854;50.968;4.168;2023-03-04T11:08:58;9.30;99.90
19437;DHT22;9854;50.968;4.168;2023-03-04T11:11:37;9.10;99.90
19437;DHT22;9854;50.968;4.168;2023-03-04T11:16:59;9.30;99.90
19437;DHT22;9854;50.968;4.168;2023-03-04T11:19:36;10.00;99.90
19437;DHT22;9854;50.968;4.168;2023-03-04T11:22:03;9.90;99.90
19437;DHT22;9854;50.968;4.168;2023-03-04T11:24:31;9.70;99.90
19437;DHT22;9854;50.968;4.168;2023-03-04T11:27:12;9.70;99.90
19437;DHT22;9854;50.968;4.168;2023-03-04T11:29:48;9.80;99.90
19437;DHT22;9854;50.968;4.168;2023-03-04T11:32:27;9.80;99.90
19437;DHT22;9854;50.968;4.168;2023-03-04T11:37:59;10.10;99.90
19437;DHT22;9854;50.968;4.168;2023-03-04T11:40:50;10.20;99.90
19437;DHT22;9854;50.968;4.168;2023-03-04T11:43:34;10.10;99.90
19437;DHT22;9854;50.968;4.168;2023-03-04T11:46:27;10.00;99.90
19437;DHT22;9854;50.968;4.168;2023-03-04T11:49:27;10.40;99.90
19437;DHT22;9854;50.968;4.168;2023-03-04T11:55:03;10.50;99.90
19437;DHT22;9854;50.968;4.168;2023-03-04T11:57:42;10.40;99.90
19437;DHT22;9854;50.968;4.168;2023-03-04T12:03:14;10.20;99.90
19437;DHT22;9854;50.968;4.168;2023-03-04T12:08:20;10.00;99.90
19437;DHT22;9854;50.968;4.168;2023-03-04T12:11:16;10.00;99.90
19437;DHT22;9854;50.968;4.168;2023-03-04T12:31:09;10.90;99.90
19437;DHT22;9854;50.968;4.168;2023-03-04T12:36:15;11.10;99.90
19437;DHT22;9854;50.968;4.168;2023-03-04T12:41:27;11.10;99.90
19437;DHT22;9854;50.968;4.168;2023-03-04T12:44:18;11.20;99.90
19437;DHT22;9854;50.968;4.168;2023-03-04T12:54:46;10.50;99.90
19437;DHT22;9854;50.968;4.168;2023-03-04T12:57:20;10.70;99.90
19437;DHT22;9854;50.968;4.168;2023-03-04T13:05:50;10.40;99.90
19437;DHT22;9854;50.968;4.168;2023-03-04T13:16:46;10.10;99.90
19437;DHT22;9854;50.968;4.168;2023-03-04T13:19:44;9.90;99.90
19437;DHT22;9854;50.968;4.168;2023-03-04T13:22:32;9.70;99.90
19437;DHT22;9854;50.968;4.168;2023-03-04T13:25:26;10.00;99.90
19437;DHT22;9854;50.968;4.168;2023-03-04T13:28:06;10.10;99.90
19437;DHT22;9854;50.968;4.168;2023-03-04T13:35:58;10.10;99.90
19437;DHT22;9854;50.968;4.168;2023-03-04T13:43:51;11.10;99.90
19437;DHT22;9854;50.968;4.168;2023-03-04T13:51:28;10.50;99.90
19437;DHT22;9854;50.968;4.168;2023-03-04T13:56:32;10.40;99.90
19437;DHT22;9854;50.968;4.168;2023-03-04T14:04:00;10.60;99.90
19437;DHT22;9854;50.968;4.168;2023-03-04T14:06:28;10.80;99.90
19437;DHT22;9854;50.968;4.168;2023-03-04T14:08:55;11.00;99.90
19437;DHT22;9854;50.968;4.168;2023-03-04T14:13:57;10.70;99.90
19437;DHT22;9854;50.968;4.168;2023-03-04T14:16:27;10.50;99.90
19437;DHT22;9854;50.968;4.168;2023-03-04T14:19:03;10.60;99.90
19437;DHT22;9854;50.968;4.168;2023-03-04T14:21:31;10.70;99.90
19437;DHT22;9854;50.968;4.168;2023-03-04T14:24:12;10.70;99.90
19437;DHT22;9854;50.968;4.168;2023-03-04T14:26:37;10.70;99.90
19437;DHT22;9854;50.968;4.168;2023-03-04T14:29:26;10.70;99.90
19437;DHT22;9854;50.968;4.168;2023-03-04T14:31:53;10.80;99.90
19437;DHT22;9854;50.968;4.168;2023-03-04T14:34:25;10.80;99.90
19437;DHT22;9854;50.968;4.168;2023-03-04T14:36:51;10.80;99.90
19437;DHT22;9854;50.968;4.168;2023-03-04T14:39:18;10.90;99.90
19437;DHT22;9854;50.968;4.168;2023-03-04T14:41:45;10.90;99.90
19437;DHT22;9854;50.968;4.168;2023-03-04T14:47:23;10.80;99.90
19437;DHT22;9854;50.968;4.168;2023-03-04T14:49:49;10.70;99.90
19437;DHT22;9854;50.968;4.168;2023-03-04T14:52:37;10.70;99.90
19437;DHT22;9854;50.968;4.168;2023-03-04T14:55:24;10.60;99.90
19437;DHT22;9854;50.968;4.168;2023-03-04T14:57:52;10.80;99.90
19437;DHT22;9854;50.968;4.168;2023-03-04T15:00:33;10.90;99.90
19437;DHT22;9854;50.968;4.168;2023-03-04T15:03:02;10.90;99.90
19437;DHT22;9854;50.968;4.168;2023-03-04T15:05:32;10.90;99.90
19437;DHT22;9854;50.968;4.168;2023-03-04T15:08:05;10.90;99.90
19437;DHT22;9854;50.968;4.168;2023-03-04T15:10:42;10.80;99.90
19437;DHT22;9854;50.968;4.168;2023-03-04T15:16:01;10.50;99.90
19437;DHT22;9854;50.968;4.168;2023-03-04T15:18:28;10.60;99.90
19437;DHT22;9854;50.968;4.168;2023-03-04T15:20:59;10.50;99.90
19437;DHT22;9854;50.968;4.168;2023-03-04T15:23:28;10.60;99.90
19437;DHT22;9854;50.968;4.168;2023-03-04T15:26:02;10.70;99.90
19437;DHT22;9854;50.968;4.168;2023-03-04T15:28:34;10.50;99.90
19437;DHT22;9854;50.968;4.168;2023-03-04T15:31:01;10.20;99.90
19437;DHT22;9854;50.968;4.168;2023-03-04T15:33:26;10.40;99.90
19437;DHT22;9854;50.968;4.168;2023-03-04T15:36:01;10.50;99.90
19437;DHT22;9854;50.968;4.168;2023-03-04T15:38:27;10.60;99.90
19437;DHT22;9854;50.968;4.168;2023-03-04T15:40:54;10.80;99.90
19437;DHT22;9854;50.968;4.168;2023-03-04T15:43:22;10.80;99.90
19437;DHT22;9854;50.968;4.168;2023-03-04T15:45:50;10.90;99.90
19437;DHT22;9854;50.968;4.168;2023-03-04T15:48:17;11.00;99.90
19437;DHT22;9854;50.968;4.168;2023-03-04T15:50:58;11.00;99.90
19437;DHT22;9854;50.968;4.168;2023-03-04T15:53:31;11.00;99.90
19437;DHT22;9854;50.968;4.168;2023-03-04T15:55:58;10.80;99.90
19437;DHT22;9854;50.968;4.168;2023-03-04T15:58:25;11.00;99.90
19437;DHT22;9854;50.968;4.168;2023-03-04T16:00:51;10.90;99.90
19437;DHT22;9854;50.968;4.168;2023-03-04T16:03:18;10.90;99.90
19437;DHT22;9854;50.968;4.168;2023-03-04T16:05:46;10.80;99.90
19437;DHT22;9854;50.968;4.168;2023-03-04T16:08:14;10.80;99.90
19437;DHT22;9854;50.968;4.168;2023-03-04T16:10:41;10.80;99.90
19437;DHT22;9854;50.968;4.168;2023-03-04T16:13:16;10.90;99.90
19437;DHT22;9854;50.968;4.168;2023-03-04T16:15:42;11.10;99.90
19437;DHT22;9854;50.968;4.168;2023-03-04T16:18:09;10.90;99.90
19437;DHT22;9854;50.968;4.168;2023-03-04T16:20:36;10.70;99.90
19437;DHT22;9854;50.968;4.168;2023-03-04T16:23:02;10.70;99.90
19437;DHT22;9854;50.968;4.168;2023-03-04T16:25:29;10.80;99.90
19437;DHT22;9854;50.968;4.168;2023-03-04T16:27:56;10.70;99.90
19437;DHT22;9854;50.968;4.168;2023-03-04T16:30:25;10.50;99.90
19437;DHT22;9854;50.968;4.168;2023-03-04T16:32:52;10.60;99.90
19437;DHT22;9854;50.968;4.168;2023-03-04T16:35:18;10.50;99.90
19437;DHT22;9854;50.968;4.168;2023-03-04T16:37:45;10.30;99.90
19437;DHT22;9854;50.968;4.168;2023-03-04T16:40:13;10.20;99.90
19437;DHT22;9854;50.968;4.168;2023-03-04T16:42:39;10.30;99.90
19437;DHT22;9854;50.968;4.168;2023-03-04T16:45:09;10.30;99.90
19437;DHT22;9854;50.968;4.168;2023-03-04T16:47:39;10.40;99.90
19437;DHT22;9854;50.968;4.168;2023-03-04T16:50:05;10.40;99.90
19437;DHT22;9854;50.968;4.168;2023-03-04T16:52:32;10.20;99.90
19437;DHT22;9854;50.968;4.168;2023-03-04T16:54:58;10.20;99.90
19437;DHT22;9854;50.968;4.168;2023-03-04T16:57:24;10.20;99.90
19437;DHT22;9854;50.968;4.168;2023-03-04T16:59:53;10.20;99.90
19437;DHT22;9854;50.968;4.168;2023-03-04T17:02:21;10.00;99.90
19437;DHT22;9854;50.968;4.168;2023-03-04T17:04:49;9.70;99.90
19437;DHT22;9854;50.968;4.168;2023-03-04T17:07:15;9.30;99.90
19437;DHT22;9854;50.968;4.168;2023-03-04T17:09:41;9.00;99.90
19437;DHT22;9854;50.968;4.168;2023-03-04T17:12:09;9.00;99.90
19437;DHT22;9854;50.968;4.168;2023-03-04T17:14:36;9.00;99.90
19437;DHT22;9854;50.968;4.168;2023-03-04T17:17:03;9.10;99.90
19437;DHT22;9854;50.968;4.168;2023-03-04T17:19:28;9.20;99.90
19437;DHT22;9854;50.968;4.168;2023-03-04T17:21:59;9.30;99.90
19437;DHT22;9854;50.968;4.168;2023-03-04T17:24:26;9.40;99.90
19437;DHT22;9854;50.968;4.168;2023-03-04T17:26:52;9.50;99.90
19437;DHT22;9854;50.968;4.168;2023-03-04T17:29:19;9.40;99.90
19437;DHT22;9854;50.968;4.168;2023-03-04T17:31:45;9.30;99.90
19437;DHT22;9854;50.968;4.168;2023-03-04T17:34:10;9.20;99.90
19437;DHT22;9854;50.968;4.168;2023-03-04T17:36:36;9.20;99.90
19437;DHT22;9854;50.968;4.168;2023-03-04T17:39:03;9.40;99.90
19437;DHT22;9854;50.968;4.168;2023-03-04T17:41:29;9.10;99.90
19437;DHT22;9854;50.968;4.168;2023-03-04T17:43:55;9.00;99.90
19437;DHT22;9854;50.968;4.168;2023-03-04T17:46:23;8.80;99.90
19437;DHT22;9854;50.968;4.168;2023-03-04T17:48:52;9.00;99.90